ウィニペグ の空港の天気 - METARとTAF

ウィニペグ国際空港 ( CYWG / YWG ) - カナダ マニトバ州ウィニペグ
飛行場実況気象(Metar)
観測時間08/11 01:00 CDT (08/11 06:00 UTC)
風向・風速西南西 7m/s
視程10km以上
天気現象
なし
気温18℃
湿度52%
気圧1004.9hPa
METARCYWG 110600Z 25013KT 15SM SKC 18/08 A2967 RMK SLP049 DENSITY ALT 1600FT
過去の天気等 Google飛行場航空写真 Wunderground天気予報

過去48時間のMETAR

飛行場予報(TAF)
発表時間: 8/11 00:38 CDT (8/11 05:38 UTC)
予報対象時間: 11日1時 CDT ~ 12日1時 CDT
風向・風速西 6m/s
視程10km以上
なし
11日10時 CDT から
風向・風速西 7m/s
視程10km以上
なし
11日19時 CDT から
風向・風速西北西 6m/s
視程10km以上
全天の4割程度の雲 雲底高度 3050m
TAF CYWG 110538Z 1106/1206 26012KT P6SM SKC
FM111500 28014KT P6SM SKC
FM120000 30012KT P6SM SCT100 RMK NXT FCST BY 111200Z